createdAt,value
2017-09-27T20:20:02.988Z,11.76
2017-09-27T20:25:02.220Z,11.74
2017-09-27T20:30:02.430Z,11.75
2017-09-27T20:35:03.025Z,11.71
2017-09-27T20:40:02.238Z,11.71
2017-09-27T20:45:02.420Z,11.68
2017-09-27T20:50:02.381Z,11.67
2017-09-27T20:55:02.610Z,11.63
2017-09-27T21:00:02.799Z,11.6
2017-09-27T21:05:02.466Z,11.55
2017-09-27T21:10:02.710Z,11.54
2017-09-27T21:15:02.893Z,11.55
2017-09-27T21:20:02.742Z,11.55
2017-09-27T21:25:02.968Z,11.55
2017-09-27T21:30:02.260Z,11.56
2017-09-27T21:35:02.500Z,11.56
2017-09-27T21:40:02.721Z,11.56
2017-09-27T21:45:02.906Z,11.54
2017-09-27T21:50:02.991Z,11.52
2017-09-27T21:55:02.252Z,11.49
2017-09-27T22:00:02.673Z,11.48
2017-09-27T22:05:02.483Z,11.51
2017-09-27T22:10:02.865Z,11.57
2017-09-27T22:15:02.258Z,11.64
2017-09-27T22:20:02.995Z,11.63
2017-09-27T22:25:02.393Z,11.62
2017-09-27T22:30:02.761Z,11.61
2017-09-27T22:35:03.006Z,11.67
2017-09-27T22:40:02.352Z,11.72
2017-09-27T22:45:02.759Z,11.76
2017-09-27T22:50:02.354Z,11.78
2017-09-27T22:55:02.748Z,11.81
2017-09-27T23:00:03.077Z,11.79
2017-09-27T23:05:02.563Z,11.79
2017-09-27T23:10:02.760Z,11.77
2017-09-27T23:15:02.986Z,11.73
2017-09-27T23:20:02.958Z,11.68
2017-09-27T23:25:02.154Z,11.64
2017-09-27T23:30:02.351Z,11.62
2017-09-27T23:35:02.358Z,11.58
2017-09-27T23:40:02.568Z,11.52
2017-09-27T23:45:02.790Z,11.51
2017-09-27T23:50:02.845Z,11.49
2017-09-27T23:55:03.043Z,11.49
